Time;durP1;ratioP1;P1;durP2;ratioP2;P2;SDS_P1;SDS_P2;PMS_P1;PMS_P2;Temp;Humidity;BMP_temperature;BMP_pressure;BME280_temperature;BME280_humidity;BME280_pressure;Samples;Min_cycle;Max_cycle;Signal;HPM_P1;HPM_P2
2021/01/08 00:24:24;;;;;;;9.82;5.43;;;25.40;91.20;;;;;;4977450;28;20066;-96
2021/01/08 00:29:41;;;;;;;5.82;3.53;;;25.30;90.50;;;;;;5196236;23;20055;-94
2021/01/08 00:32:54;;;;;;;6.20;3.33;;;25.20;88.70;;;;;;4951864;29;20153;-94
2021/01/08 00:35:22;;;;;;;4.88;3.25;;;25.20;87.30;;;;;;4913024;29;20024;-94
2021/01/08 00:37:50;;;;;;;4.40;3.30;;;25.10;87.00;;;;;;4953394;29;20031;-89
2021/01/08 00:40:20;;;;;;;4.35;3.13;;;25.10;86.50;;;;;;4953819;29;20035;-91
2021/01/08 00:47:58;;;;;;;4.63;3.95;;;25.10;86.10;;;;;;5375420;23;20051;-89
2021/01/08 00:50:44;;;;;;;4.63;3.40;;;25.10;85.80;;;;;;5045056;23;20083;-91
2021/01/08 00:53:33;;;;;;;9.00;5.45;;;25.00;85.60;;;;;;4972967;29;20039;-91
2021/01/08 00:56:03;;;;;;;6.28;3.13;;;25.00;85.40;;;;;;4955432;29;20055;-91
2021/01/08 00:58:35;;;;;;;5.65;3.90;;;25.00;85.50;;;;;;5317518;23;20087;-90
2021/01/08 01:01:04;;;;;;;4.70;3.70;;;25.00;85.30;;;;;;4952180;29;20093;-90
2021/01/08 01:03:35;;;;;;;5.93;3.65;;;25.00;85.60;;;;;;4933547;29;20044;-91
2021/01/08 01:06:02;;;;;;;5.40;3.53;;;25.00;86.20;;;;;;4938665;29;20102;-90
2021/01/08 01:08:30;;;;;;;4.82;3.45;;;24.90;86.10;;;;;;4928804;29;20035;-90
2021/01/08 01:11:10;;;;;;;8.25;4.20;;;24.90;86.30;;;;;;4973655;29;20054;-89
2021/01/08 01:16:33;;;;;;;5.78;3.95;;;24.90;85.50;;;;;;4974742;29;20074;-91
2021/01/08 01:18:59;;;;;;;5.75;3.25;;;25.00;86.30;;;;;;4961451;29;20023;-91
2021/01/08 01:21:44;;;;;;;6.10;3.70;;;24.90;85.70;;;;;;4962545;28;20111;-89
2021/01/08 01:24:11;;;;;;;6.38;4.50;;;24.90;86.40;;;;;;5129436;23;20035;-90
2021/01/08 01:26:45;;;;;;;7.30;4.50;;;24.80;86.80;;;;;;4979100;28;20054;-93
2021/01/08 01:29:22;;;;;;;9.48;5.05;;;24.90;87.30;;;;;;4961373;29;20050;-89
2021/01/08 01:31:54;;;;;;;9.82;5.00;;;24.80;87.20;;;;;;4979022;29;20054;-88
2021/01/08 01:36:08;;;;;;;6.70;4.65;;;24.80;87.00;;;;;;4914288;29;20035;-94
2021/01/08 01:38:10;;;;;;;6.97;4.72;;;24.80;87.60;;;;;;4925099;29;20028;-93
2021/01/08 01:41:05;;;;;;;;;;;24.80;87.80;;;;;;4914779;29;20060;-91
2021/01/08 01:44:07;;;;;;;7.97;4.97;;;24.80;87.30;;;;;;4928442;29;19911;-92
2021/01/08 01:46:53;;;;;;;7.45;5.00;;;24.80;87.50;;;;;;4940360;29;20042;-92
2021/01/08 01:49:39;;;;;;;11.45;6.88;;;24.80;87.70;;;;;;4935877;29;20028;-94
2021/01/08 02:44:44;;;;;;;21.35;12.55;;;24.00;90.30;;;;;;4918931;29;20077;-93
2021/01/08 02:50:49;;;;;;;18.63;10.70;;;23.90;91.40;;;;;;4937252;29;20059;-96
2021/01/08 03:00:47;;;;;;;8.77;5.57;;;23.40;92.40;;;;;;4972509;29;20047;-92
2021/01/08 03:50:23;;;;;;;14.07;5.22;;;23.40;92.40;;;;;;4955567;28;20059;-95
2021/01/08 03:52:50;;;;;;;7.03;4.40;;;23.40;92.30;;;;;;4939026;29;20052;-96
2021/01/08 03:55:16;;;;;;;6.00;4.25;;;23.30;92.20;;;;;;4934739;29;20059;-93
2021/01/08 03:57:43;;;;;;;6.43;4.57;;;23.30;92.20;;;;;;4932150;29;20038;-89
2021/01/08 04:00:10;;;;;;;5.18;4.20;;;23.30;92.30;;;;;;4932741;29;20268;-95
2021/01/08 04:02:37;;;;;;;5.80;4.25;;;23.30;92.30;;;;;;4932039;29;20079;-93
2021/01/08 04:05:09;;;;;;;6.53;4.10;;;23.20;91.90;;;;;;4933275;29;20097;-92
2021/01/08 04:07:36;;;;;;;10.63;4.85;;;23.20;92.60;;;;;;4932621;29;20090;-95
2021/01/08 04:10:03;;;;;;;7.88;4.97;;;23.10;92.80;;;;;;4937629;29;20044;-92
2021/01/08 04:12:29;;;;;;;7.30;4.90;;;23.00;92.90;;;;;;4931936;29;20059;-93
2021/01/08 04:14:56;;;;;;;7.30;4.45;;;23.00;92.80;;;;;;4949532;29;20039;-93
2021/01/08 04:17:33;;;;;;;5.75;4.05;;;23.00;92.80;;;;;;4933402;29;20104;-93
2021/01/08 04:20:20;;;;;;;5.60;4.57;;;23.10;92.60;;;;;;4935167;29;20210;-91
2021/01/08 04:22:48;;;;;;;5.78;4.20;;;23.10;92.70;;;;;;4910292;29;20032;-91
2021/01/08 04:25:35;;;;;;;5.20;3.88;;;23.10;92.70;;;;;;4911566;29;20100;-93
2021/01/08 04:28:10;;;;;;;5.35;4.32;;;23.10;92.60;;;;;;4893804;29;20107;-91
2021/01/08 04:30:37;;;;;;;6.65;4.55;;;23.10;92.60;;;;;;4892697;29;20034;-92
2021/01/08 04:33:04;;;;;;;6.72;3.97;;;23.10;92.70;;;;;;4893400;29;20039;-96
2021/01/08 04:35:30;;;;;;;5.57;4.07;;;23.10;92.20;;;;;;4893461;29;20328;-96
2021/01/08 04:37:57;;;;;;;6.03;3.65;;;23.10;92.30;;;;;;4892911;29;20036;-96
2021/01/08 04:40:24;;;;;;;4.60;3.47;;;23.10;92.30;;;;;;4893436;29;20035;-92
2021/01/08 04:42:50;;;;;;;4.65;3.70;;;23.10;92.20;;;;;;4892742;29;20115;-96
2021/01/08 04:45:17;;;;;;;6.25;4.00;;;23.10;92.30;;;;;;4892994;29;20029;-92
2021/01/08 04:47:46;;;;;;;5.50;3.92;;;23.20;92.20;;;;;;4892721;29;20365;-96
2021/01/08 04:50:14;;;;;;;4.38;3.28;;;23.10;92.00;;;;;;4892509;29;20037;-92
2021/01/08 04:52:40;;;;;;;4.85;3.90;;;23.20;91.60;;;;;;4892688;29;20289;-93
2021/01/08 04:55:24;;;;;;;10.40;3.97;;;23.20;91.90;;;;;;4892395;29;20032;-93
2021/01/08 04:57:53;;;;;;;10.50;3.08;;;23.30;91.50;;;;;;4892406;29;20036;-92
2021/01/08 05:00:22;;;;;;;3.92;3.10;;;23.30;91.40;;;;;;4892804;29;20028;-95
2021/01/08 05:02:53;;;;;;;3.88;2.70;;;23.40;90.90;;;;;;4893865;29;20127;-92
2021/01/08 05:05:22;;;;;;;4.82;3.20;;;23.40;91.20;;;;;;4894515;29;20122;-93
2021/01/08 05:07:49;;;;;;;4.00;2.97;;;23.50;91.10;;;;;;4895198;29;20040;-93
2021/01/08 05:10:21;;;;;;;4.63;3.25;;;23.50;91.10;;;;;;4894720;29;20329;-93
2021/01/08 05:12:51;;;;;;;3.28;2.90;;;23.60;90.40;;;;;;4909645;29;20111;-92
2021/01/08 05:15:23;;;;;;;4.07;3.22;;;23.60;90.60;;;;;;4930886;29;20052;-90
2021/01/08 05:17:50;;;;;;;6.63;3.03;;;23.60;89.70;;;;;;4932026;29;20075;-94
2021/01/08 05:20:17;;;;;;;5.13;3.47;;;23.70;90.00;;;;;;4932554;29;20027;-92
2021/01/08 05:22:44;;;;;;;3.67;3.22;;;23.70;90.00;;;;;;4931791;29;20079;-93
2021/01/08 05:25:12;;;;;;;5.95;3.50;;;23.70;90.30;;;;;;4930904;29;20079;-95
2021/01/08 05:27:39;;;;;;;5.40;3.45;;;23.80;90.30;;;;;;4931140;29;20047;-93
2021/01/08 05:30:25;;;;;;;3.97;3.10;;;23.80;89.60;;;;;;4930300;29;20035;-92
2021/01/08 05:33:14;;;;;;;3.90;2.70;;;23.80;90.00;;;;;;4930731;29;20071;-92
2021/01/08 05:35:44;;;;;;;4.78;2.80;;;23.80;89.60;;;;;;4930452;29;20054;-95
2021/01/08 05:38:12;;;;;;;4.60;3.10;;;23.90;89.60;;;;;;4930310;29;20040;-93
2021/01/08 05:40:42;;;;;;;4.47;3.03;;;23.90;89.90;;;;;;4931435;29;20024;-92
2021/01/08 05:43:15;;;;;;;3.60;3.00;;;23.90;88.70;;;;;;4930474;29;20036;-93
2021/01/08 05:45:41;;;;;;;6.80;2.92;;;23.90;88.90;;;;;;4930158;29;20040;-93
2021/01/08 05:48:09;;;;;;;3.38;2.78;;;24.00;88.40;;;;;;4930181;29;20071;-93
2021/01/08 05:50:36;;;;;;;3.78;3.03;;;24.00;88.60;;;;;;4930350;29;20028;-92
2021/01/08 05:53:04;;;;;;;5.20;2.88;;;24.00;88.00;;;;;;4931330;29;20313;-93
2021/01/08 05:55:39;;;;;;;5.10;3.33;;;23.90;88.50;;;;;;4946309;29;20054;-92
2021/01/08 05:58:20;;;;;;;4.43;2.70;;;23.90;88.00;;;;;;4930624;29;20036;-92
2021/01/08 06:00:58;;;;;;;4.70;3.08;;;23.80;87.60;;;;;;4930251;29;20035;-92
2021/01/08 06:03:26;;;;;;;3.85;2.80;;;23.80;88.90;;;;;;4946235;29;20042;-92
2021/01/08 06:05:57;;;;;;;3.47;2.78;;;23.80;89.20;;;;;;4930050;29;20103;-92
2021/01/08 06:08:52;;;;;;;4.55;3.10;;;23.90;89.50;;;;;;4930044;29;20059;-93
2021/01/08 06:11:21;;;;;;;4.28;3.00;;;23.90;89.80;;;;;;4924589;29;20368;-94
2021/01/08 06:13:57;;;;;;;4.68;3.15;;;23.90;89.50;;;;;;4946720;29;20047;-94
2021/01/08 06:17:10;;;;;;;4.93;2.95;;;23.90;89.80;;;;;;4933581;29;20048;-93
2021/01/08 06:19:37;;;;;;;3.95;2.92;;;24.00;89.10;;;;;;4949319;29;20059;-94
2021/01/08 06:22:03;;;;;;;3.58;3.00;;;24.00;89.00;;;;;;4933442;29;20042;-92
2021/01/08 06:24:56;;;;;;;3.63;3.15;;;24.00;89.40;;;;;;4933424;29;20034;-93
2021/01/08 06:27:30;;;;;;;4.07;3.00;;;24.00;89.70;;;;;;4933372;29;20035;-93
2021/01/08 06:30:01;;;;;;;3.47;2.67;;;24.00;90.00;;;;;;4933385;29;20043;-93
2021/01/08 06:32:30;;;;;;;4.25;3.10;;;24.00;90.10;;;;;;4933564;29;20075;-90
2021/01/08 06:35:08;;;;;;;3.78;2.75;;;24.00;89.80;;;;;;4933540;29;20039;-92
2021/01/08 06:37:42;;;;;;;4.60;2.92;;;24.00;89.40;;;;;;4933156;29;20301;-92
2021/01/08 06:40:13;;;;;;;5.13;3.20;;;23.90;89.80;;;;;;4933024;29;20071;-95
2021/01/08 06:46:03;;;;;;;5.32;3.05;;;23.90;89.90;;;;;;4949898;29;20320;-94
2021/01/08 06:48:33;;;;;;;4.97;3.03;;;24.00;89.90;;;;;;4932742;29;20043;-93
2021/01/08 06:51:06;;;;;;;3.83;2.60;;;24.00;88.40;;;;;;4932844;29;20038;-92
2021/01/08 06:53:36;;;;;;;3.92;2.92;;;24.00;88.30;;;;;;4933243;29;20031;-95
2021/01/08 06:56:03;;;;;;;4.90;2.83;;;23.90;89.60;;;;;;4932685;29;20099;-92
2021/01/08 06:58:36;;;;;;;4.43;3.10;;;24.00;90.00;;;;;;4932955;29;20055;-92
2021/01/08 07:01:03;;;;;;;4.05;2.90;;;24.00;90.40;;;;;;4932400;29;20035;-93
2021/01/08 07:03:31;;;;;;;4.47;3.30;;;24.00;90.40;;;;;;4932440;29;20032;-94
2021/01/08 07:05:57;;;;;;;3.63;3.10;;;24.00;90.30;;;;;;4932478;29;20070;-93
2021/01/08 07:08:25;;;;;;;3.13;2.78;;;24.00;89.90;;;;;;4932135;29;20248;-94
2021/01/08 07:10:54;;;;;;;3.25;2.95;;;24.00;88.30;;;;;;4932174;29;20099;-94
2021/01/08 07:13:30;;;;;;;3.50;2.88;;;24.00;88.70;;;;;;4932403;29;20043;-96
2021/01/08 07:15:57;;;;;;;6.47;2.60;;;24.00;86.80;;;;;;4931897;29;20028;-94
2021/01/08 07:18:27;;;;;;;2.83;2.28;;;24.00;86.60;;;;;;4932097;29;20031;-94
2021/01/08 07:20:58;;;;;;;5.35;2.30;;;24.00;87.30;;;;;;4931886;29;20030;-96
2021/01/08 07:23:27;;;;;;;3.83;2.45;;;24.00;85.40;;;;;;4932048;29;20106;-93
2021/01/08 07:25:55;;;;;;;2.90;2.42;;;24.10;86.80;;;;;;4930823;29;20034;-94
2021/01/08 07:28:24;;;;;;;3.38;3.08;;;23.90;86.20;;;;;;4931799;29;20038;-95
2021/01/08 07:31:27;;;;;;;3.15;2.75;;;24.00;88.30;;;;;;4947838;29;20023;-93
2021/01/08 07:33:55;;;;;;;3.28;2.75;;;24.10;89.00;;;;;;4947691;29;20260;-94
2021/01/08 07:36:32;;;;;;;2.92;2.63;;;24.10;88.30;;;;;;4928060;29;20400;-93
2021/01/08 07:39:00;;;;;;;3.40;2.78;;;24.10;88.70;;;;;;4944936;29;20295;-94
2021/01/08 07:41:39;;;;;;;6.00;2.70;;;24.10;88.80;;;;;;4931613;29;20316;-94
2021/01/08 07:44:34;;;;;;;6.32;3.90;;;24.10;89.40;;;;;;4931585;29;20442;-95
2021/01/08 07:47:22;;;;;;;4.13;2.78;;;24.10;88.00;;;;;;4947473;29;20036;-93
2021/01/08 07:50:21;;;;;;;2.40;2.20;;;24.10;86.70;;;;;;4931241;29;20127;-93
2021/01/08 07:52:48;;;;;;;5.20;2.17;;;24.10;86.90;;;;;;4902262;29;20043;-94
2021/01/08 07:55:45;;;;;;;3.15;2.47;;;24.10;85.90;;;;;;4932602;29;20027;-93
2021/01/08 07:58:13;;;;;;;4.38;2.63;;;24.10;85.50;;;;;;4934817;29;20036;-92
2021/01/08 08:00:41;;;;;;;8.00;3.00;;;24.20;85.80;;;;;;4917578;29;20028;-94
2021/01/08 08:03:13;;;;;;;3.17;2.55;;;24.20;86.20;;;;;;4931716;29;20035;-94
2021/01/08 08:05:44;;;;;;;3.55;2.30;;;24.20;85.10;;;;;;4932252;29;20055;-92
2021/01/08 08:08:11;;;;;;;4.00;2.55;;;24.20;85.30;;;;;;4931136;29;20036;-95
2021/01/08 08:14:06;;;;;;;3.25;2.20;;;24.30;84.30;;;;;;4948229;29;20063;-93
2021/01/08 08:16:36;;;;;;;3.22;2.42;;;24.20;83.60;;;;;;4930970;29;20047;-93
2021/01/08 08:19:05;;;;;;;3.08;2.58;;;24.20;84.60;;;;;;4930914;29;20216;-93
2021/01/08 08:21:32;;;;;;;4.35;2.80;;;24.20;85.90;;;;;;4931027;29;20331;-95
2021/01/08 08:24:02;;;;;;;4.43;2.50;;;24.20;86.00;;;;;;4930924;29;20449;-94
2021/01/08 08:26:30;;;;;;;5.00;2.67;;;24.20;86.30;;;;;;4930794;29;20106;-93
2021/01/08 08:29:14;;;;;;;3.78;2.53;;;24.20;86.70;;;;;;4930753;29;20038;-92
2021/01/08 08:31:50;;;;;;;4.03;2.50;;;24.10;88.10;;;;;;4930633;29;20043;-93
2021/01/08 08:34:29;;;;;;;4.03;2.53;;;24.20;88.30;;;;;;4930849;29;20031;-94
2021/01/08 08:37:09;;;;;;;3.13;2.50;;;24.10;88.60;;;;;;4929863;29;20339;-94
2021/01/08 08:39:37;;;;;;;3.35;2.60;;;24.10;88.70;;;;;;4930761;29;20328;-93
2021/01/08 08:42:04;;;;;;;4.53;3.05;;;24.10;89.10;;;;;;4946396;29;20342;-94
2021/01/08 08:44:40;;;;;;;3.67;2.78;;;24.10;89.30;;;;;;4930678;29;20118;-93
2021/01/08 08:47:06;;;;;;;3.42;2.78;;;24.10;89.50;;;;;;4930760;29;20058;-95
2021/01/08 08:49:37;;;;;;;2.70;2.45;;;24.10;89.20;;;;;;4931144;29;20136;-94
2021/01/08 08:52:05;;;;;;;3.40;2.83;;;24.10;89.30;;;;;;4930477;29;20087;-93
2021/01/08 08:54:38;;;;;;;3.85;2.97;;;24.10;89.10;;;;;;4930417;29;20098;-93
2021/01/08 08:57:05;;;;;;;5.63;2.75;;;24.10;89.90;;;;;;4930397;29;20316;-93
2021/01/08 08:59:37;;;;;;;3.03;2.47;;;24.00;88.80;;;;;;4930802;29;20272;-93
2021/01/08 09:02:05;;;;;;;4.78;3.00;;;23.90;88.90;;;;;;4946483;29;20047;-94
2021/01/08 09:04:32;;;;;;;4.25;2.60;;;23.90;88.90;;;;;;4932789;29;20032;-93
2021/01/08 09:07:07;;;;;;;4.65;2.88;;;23.90;89.40;;;;;;4930379;29;20336;-93
2021/01/08 09:09:38;;;;;;;6.32;3.35;;;23.80;90.00;;;;;;4930015;29;20075;-93
2021/01/08 09:12:30;;;;;;;7.28;3.47;;;23.80;90.10;;;;;;4930101;29;20031;-93
2021/01/08 09:15:06;;;;;;;6.60;3.33;;;23.70;90.30;;;;;;4931506;29;20032;-93
2021/01/08 09:17:47;;;;;;;6.65;3.20;;;23.70;90.40;;;;;;4931415;29;20036;-94
2021/01/08 09:20:16;;;;;;;5.07;3.20;;;23.60;90.50;;;;;;4930532;29;20040;-92
2021/01/08 09:22:43;;;;;;;3.45;2.90;;;23.60;90.60;;;;;;4930210;29;20043;-95
2021/01/08 09:25:11;;;;;;;6.15;3.17;;;23.60;90.90;;;;;;4929881;29;20250;-94
2021/01/08 09:27:42;;;;;;;5.30;3.22;;;23.50;90.70;;;;;;4930198;29;20126;-96
2021/01/08 09:30:11;;;;;;;4.10;2.88;;;23.50;90.80;;;;;;4929866;29;20150;-94
2021/01/08 09:32:38;;;;;;;4.07;3.03;;;23.50;90.90;;;;;;4930660;29;20032;-94
2021/01/08 09:35:10;;;;;;;5.72;3.17;;;23.40;90.90;;;;;;4929433;29;20324;-94
2021/01/08 09:37:41;;;;;;;7.07;3.00;;;23.40;91.10;;;;;;4930213;29;20043;-94
2021/01/08 09:40:10;;;;;;;4.32;2.90;;;23.40;91.20;;;;;;4945994;29;20039;-96
2021/01/08 09:42:38;;;;;;;4.60;3.10;;;23.40;91.30;;;;;;4930291;29;20040;-95
2021/01/08 09:45:27;;;;;;;4.80;2.90;;;23.40;91.20;;;;;;4934068;29;20036;-93
2021/01/08 09:48:46;;;;;;;5.63;2.90;;;23.40;91.10;;;;;;4950803;29;20356;-92
2021/01/08 09:51:33;;;;;;;4.97;2.97;;;23.50;91.00;;;;;;4901315;29;20044;-93
2021/01/08 09:54:00;;;;;;;4.72;3.25;;;23.60;91.00;;;;;;4914651;29;20029;-96
2021/01/08 09:56:32;;;;;;;7.35;2.97;;;23.60;90.90;;;;;;4898200;29;20056;-94
2021/01/08 09:59:17;;;;;;;5.30;3.10;;;23.60;90.80;;;;;;4898363;29;20048;-91
2021/01/08 10:01:54;;;;;;;4.37;3.27;;;23.60;90.90;;;;;;4911762;29;20084;-95
2021/01/08 10:04:31;;;;;;;6.60;3.60;;;23.50;91.10;;;;;;4911030;29;20044;-92
2021/01/08 10:07:05;;;;;;;4.13;3.30;;;23.50;91.00;;;;;;4913700;29;20056;-92
2021/01/08 10:09:54;;;;;;;5.32;3.67;;;23.40;91.20;;;;;;4910931;29;20372;-92
2021/01/08 10:12:22;;;;;;;5.88;3.30;;;23.50;91.10;;;;;;4921569;29;20056;-96
2021/01/08 10:15:09;;;;;;;5.00;3.30;;;23.50;90.90;;;;;;4919461;29;20036;-90
2021/01/08 10:17:54;;;;;;;5.82;3.72;;;23.50;91.00;;;;;;4923991;29;20040;-95
2021/01/08 10:20:25;;;;;;;4.03;3.22;;;23.50;91.00;;;;;;4923180;29;20384;-90
2021/01/08 10:22:53;;;;;;;4.85;3.17;;;23.50;91.00;;;;;;4923794;29;20048;-85
2021/01/08 10:30:29;;;;;;;4.65;3.15;;;23.60;91.00;;;;;;4960750;28;20046;-93
2021/01/08 10:32:57;;;;;;;5.55;2.90;;;23.60;90.90;;;;;;4943163;29;20048;-96
2021/01/08 10:35:24;;;;;;;4.40;3.35;;;23.70;90.80;;;;;;4918530;29;20063;-92
2021/01/08 10:37:53;;;;;;;3.45;2.58;;;23.70;90.80;;;;;;4934788;29;20043;-94
2021/01/08 10:40:20;;;;;;;3.90;3.13;;;23.70;90.60;;;;;;4933152;29;20036;-93
2021/01/08 10:42:51;;;;;;;3.58;2.50;;;23.70;91.00;;;;;;4949963;29;20324;-93
2021/01/08 10:45:20;;;;;;;4.45;2.80;;;23.70;90.70;;;;;;4934304;29;20098;-94
2021/01/08 10:47:59;;;;;;;6.65;3.17;;;23.70;90.80;;;;;;4952299;29;20035;-91
2021/01/08 10:50:28;;;;;;;4.32;2.90;;;23.70;90.60;;;;;;4939998;29;20068;-91
2021/01/08 10:52:55;;;;;;;4.05;3.03;;;23.70;90.70;;;;;;4933070;29;20114;-94
2021/01/08 10:55:47;;;;;;;5.28;3.35;;;23.80;90.80;;;;;;4931765;29;20055;-94
2021/01/08 10:58:19;;;;;;;5.15;3.35;;;23.80;90.80;;;;;;4878803;29;20054;-91
2021/01/08 11:00:53;;;;;;;3.63;2.80;;;23.80;90.70;;;;;;4890766;29;20039;-91
2021/01/08 11:03:19;;;;;;;3.55;3.00;;;23.90;90.60;;;;;;4879751;29;20108;-92
2021/01/08 11:05:47;;;;;;;3.50;2.92;;;23.90;90.60;;;;;;4893605;29;20028;-93
2021/01/08 11:08:15;;;;;;;3.63;2.22;;;23.80;90.40;;;;;;4893953;29;20073;-93
2021/01/08 11:10:44;;;;;;;4.40;2.67;;;23.80;90.60;;;;;;4909700;29;20088;-93
2021/01/08 11:13:11;;;;;;;9.20;2.85;;;23.80;90.60;;;;;;4893914;29;20029;-91
2021/01/08 11:15:38;;;;;;;3.10;2.63;;;23.80;90.70;;;;;;4897076;29;20032;-91
2021/01/08 11:18:05;;;;;;;4.57;2.55;;;23.80;90.70;;;;;;4893857;29;20032;-91
2021/01/08 11:20:40;;;;;;;5.05;3.40;;;23.80;90.80;;;;;;4897166;29;20037;-96
2021/01/08 11:23:27;;;;;;;5.00;3.08;;;23.90;91.00;;;;;;4900077;29;20214;-93
2021/01/08 11:25:53;;;;;;;4.97;2.92;;;23.80;91.30;;;;;;4895445;29;20052;-92
2021/01/08 11:28:23;;;;;;;3.25;2.60;;;23.80;91.40;;;;;;4917165;29;20103;-93
2021/01/08 11:30:50;;;;;;;4.25;3.42;;;23.80;91.40;;;;;;4931920;29;20114;-93
2021/01/08 11:33:16;;;;;;;25.30;4.38;;;23.80;91.40;;;;;;4931290;29;20040;-92
2021/01/08 11:35:43;;;;;;;21.48;4.47;;;23.60;92.10;;;;;;4934264;29;20035;-94
2021/01/08 11:38:28;;;;;;;23.05;4.53;;;23.50;91.60;;;;;;4952630;29;20036;-94
2021/01/08 11:40:55;;;;;;;10.18;3.72;;;23.50;92.10;;;;;;4932767;29;20051;-92
2021/01/08 11:43:26;;;;;;;7.68;3.45;;;23.60;91.80;;;;;;4935408;29;20047;-93
2021/01/08 11:45:52;;;;;;;5.45;3.25;;;23.60;91.30;;;;;;4938070;29;20031;-92
2021/01/08 11:48:22;;;;;;;6.55;3.20;;;23.70;91.10;;;;;;4925933;29;20079;-93
2021/01/08 11:50:51;;;;;;;34.75;17.13;;;23.70;91.00;;;;;;4918830;29;20067;-91
2021/01/08 11:53:33;;;;;;;6.55;4.45;;;23.70;91.00;;;;;;4940369;29;20063;-91
2021/01/08 11:56:07;;;;;;;6.53;3.85;;;23.80;91.00;;;;;;4940213;29;20039;-92
2021/01/08 11:58:36;;;;;;;34.83;10.07;;;23.80;90.90;;;;;;4958640;29;20083;-92
2021/01/08 12:01:40;;;;;;;12.18;4.75;;;23.80;91.60;;;;;;4949473;29;20027;-96
2021/01/08 12:04:11;;;;;;;18.35;8.15;;;23.80;91.00;;;;;;4937989;29;20355;-93
2021/01/08 12:06:38;;;;;;;8.63;5.35;;;23.80;91.10;;;;;;4937705;29;20356;-93
2021/01/08 12:09:11;;;;;;;8.50;5.28;;;23.70;90.10;;;;;;4932416;29;20040;-93
2021/01/08 12:12:24;;;;;;;8.07;4.10;;;23.70;91.00;;;;;;4931278;29;20027;-92
2021/01/08 12:14:51;;;;;;;31.80;6.63;;;23.60;91.10;;;;;;4931180;29;20074;-93
2021/01/08 12:17:19;;;;;;;25.08;5.35;;;23.60;91.60;;;;;;4923872;29;20031;-94
2021/01/08 12:19:52;;;;;;;13.73;4.63;;;23.50;90.90;;;;;;4917748;29;20040;-94
2021/01/08 12:22:20;;;;;;;12.15;4.97;;;23.50;91.70;;;;;;4926859;29;20040;-95
2021/01/08 12:24:48;;;;;;;5.20;3.88;;;23.50;91.80;;;;;;4934681;29;20034;-94
2021/01/08 12:27:36;;;;;;;13.57;3.97;;;23.40;91.90;;;;;;4936306;29;20036;-96
2021/01/08 12:30:03;;;;;;;39.63;22.00;;;23.40;92.30;;;;;;4892755;29;20060;-94
2021/01/08 12:32:30;;;;;;;6.97;3.80;;;23.40;92.70;;;;;;4894944;29;20111;-92
2021/01/08 12:37:50;;;;;;;12.98;5.68;;;23.30;93.10;;;;;;5003765;23;20251;-92
2021/01/08 12:40:27;;;;;;;17.70;6.82;;;23.40;93.40;;;;;;4953703;29;20143;-94
2021/01/08 12:43:22;;;;;;;27.58;10.57;;;23.30;93.90;;;;;;4956347;29;20011;-94
2021/01/08 12:45:49;;;;;;;16.10;10.38;;;23.40;94.10;;;;;;4954385;29;20075;-92
2021/01/08 12:48:17;;;;;;;16.48;6.60;;;23.50;94.20;;;;;;4951965;29;20320;-93
2021/01/08 12:50:44;;;;;;;126.82;49.08;;;23.40;94.90;;;;;;4936081;29;20102;-95
2021/01/08 12:53:18;;;;;;;176.60;29.58;;;23.40;95.20;;;;;;4970282;29;20081;-89
2021/01/08 12:55:58;;;;;;;188.88;27.83;;;23.40;95.00;;;;;;4952472;29;20031;-91
2021/01/08 12:58:25;;;;;;;210.45;24.48;;;23.50;95.00;;;;;;4949990;29;20035;-91
2021/01/08 13:00:51;;;;;;;109.32;13.88;;;23.30;95.90;;;;;;4949606;29;20027;-91
2021/01/08 13:03:18;;;;;;;142.30;17.55;;;23.10;96.30;;;;;;4949891;29;20037;-95
2021/01/08 13:05:48;;;;;;;253.48;30.75;;;22.90;96.80;;;;;;4950966;29;20058;-94
2021/01/08 13:08:16;;;;;;;70.03;11.82;;;23.00;97.00;;;;;;4949570;29;20035;-92
2021/01/08 13:10:43;;;;;;;19.80;5.78;;;23.00;96.60;;;;;;4942635;29;20047;-95
2021/01/08 13:13:10;;;;;;;16.50;4.93;;;23.10;96.40;;;;;;4948230;29;20035;-92
2021/01/08 13:15:37;;;;;;;15.07;5.50;;;23.10;96.20;;;;;;4947551;29;20028;-94
2021/01/08 13:18:04;;;;;;;6.78;4.22;;;23.00;96.30;;;;;;4949202;29;20035;-92
2021/01/08 13:20:30;;;;;;;13.90;5.90;;;23.00;96.40;;;;;;4949889;29;20039;-91
2021/01/08 13:22:57;;;;;;;9.05;4.30;;;23.10;96.30;;;;;;4949963;29;20031;-91
2021/01/08 13:25:24;;;;;;;6.30;3.33;;;22.90;97.00;;;;;;4946904;29;20040;-91
2021/01/08 13:27:52;;;;;;;3.88;3.35;;;22.90;97.10;;;;;;4946324;29;20320;-93
2021/01/08 13:30:20;;;;;;;6.60;3.55;;;22.90;97.20;;;;;;4932204;29;20036;-91
2021/01/08 13:32:51;;;;;;;5.65;4.38;;;22.90;97.20;;;;;;4950693;29;20028;-90
2021/01/08 13:35:18;;;;;;;8.45;6.32;;;22.80;97.20;;;;;;4934605;29;20055;-94
2021/01/08 13:37:44;;;;;;;8.43;5.13;;;22.80;97.20;;;;;;4948438;29;20082;-93
2021/01/08 13:40:11;;;;;;;4.10;3.67;;;22.90;97.10;;;;;;4951003;29;20038;-93
2021/01/08 13:42:38;;;;;;;4.50;3.70;;;22.80;97.40;;;;;;4932753;29;20050;-91
2021/01/08 13:45:06;;;;;;;4.28;3.25;;;22.90;97.50;;;;;;4934405;29;20055;-91
2021/01/08 13:47:33;;;;;;;4.57;3.35;;;22.90;97.40;;;;;;4932576;29;20027;-91
2021/01/08 13:50:03;;;;;;;7.18;4.43;;;23.00;97.10;;;;;;4950090;29;20036;-93
2021/01/08 13:56:09;;;;;;;4.20;3.80;;;23.10;96.90;;;;;;4949754;29;20031;-93
2021/01/08 13:59:04;;;;;;;6.40;3.53;;;23.10;97.00;;;;;;4905615;29;20024;-89
2021/01/08 14:01:52;;;;;;;3.70;3.38;;;23.20;96.90;;;;;;4910944;29;20019;-96
2021/01/08 14:07:04;;;;;;;4.60;3.55;;;23.20;97.20;;;;;;5551999;23;20052;-92
2021/01/08 14:16:30;;;;;;;3.10;2.60;;;23.60;96.40;;;;;;4971871;29;20038;-90
2021/01/08 14:25:46;;;;;;;4.78;3.85;;;23.80;96.00;;;;;;5262232;23;20352;-92
2021/01/08 14:39:55;;;;;;;5.30;4.10;;;23.90;95.60;;;;;;4956084;29;20066;-94
2021/01/08 14:50:24;;;;;;;4.03;3.47;;;23.60;95.70;;;;;;4971951;28;20109;-94
2021/01/08 14:53:23;;;;;;;3.65;3.22;;;23.60;95.70;;;;;;4897770;29;20355;-92
2021/01/08 14:55:53;;;;;;;4.13;3.30;;;23.50;96.00;;;;;;4892994;29;20032;-91
2021/01/08 14:58:19;;;;;;;5.45;3.53;;;23.60;95.90;;;;;;4940252;29;20039;-91
2021/01/08 15:11:11;;;;;;;6.43;4.18;;;23.40;96.30;;;;;;4902948;29;20035;-95
2021/01/08 15:13:39;;;;;;;8.95;5.13;;;23.40;96.20;;;;;;4879259;29;20029;-90
2021/01/08 15:16:15;;;;;;;4.18;3.40;;;23.40;96.50;;;;;;4876169;29;20037;-92
2021/01/08 15:19:04;;;;;;;6.45;4.38;;;23.30;96.60;;;;;;4877661;29;20071;-88
2021/01/08 15:21:30;;;;;;;7.07;4.60;;;23.20;96.70;;;;;;4841709;29;20036;-91
2021/01/08 15:23:59;;;;;;;5.70;4.03;;;23.30;96.60;;;;;;4857324;29;20034;-91
2021/01/08 15:26:26;;;;;;;8.60;4.55;;;23.30;96.70;;;;;;4873192;29;20029;-92
2021/01/08 15:28:52;;;;;;;8.98;4.85;;;23.40;96.50;;;;;;4872316;29;20049;-90
2021/01/08 15:31:24;;;;;;;9.93;4.75;;;23.50;96.20;;;;;;4872262;29;20054;-91
2021/01/08 15:33:50;;;;;;;8.27;4.53;;;23.50;96.60;;;;;;4859287;29;20041;-91
2021/01/08 15:36:17;;;;;;;8.25;4.40;;;23.60;96.40;;;;;;4856777;29;20030;-92
2021/01/08 15:38:45;;;;;;;8.32;5.43;;;23.60;96.50;;;;;;4896510;29;20036;-92
2021/01/08 15:41:14;;;;;;;7.50;4.53;;;23.50;96.80;;;;;;4913458;29;20339;-91
2021/01/08 15:43:41;;;;;;;5.65;3.83;;;23.40;96.80;;;;;;4915740;29;20032;-91
2021/01/08 15:46:08;;;;;;;4.15;3.53;;;23.50;96.60;;;;;;4919692;29;20054;-91
2021/01/08 15:48:34;;;;;;;4.75;3.55;;;23.40;96.60;;;;;;4935912;29;20131;-90
2021/01/08 15:51:02;;;;;;;7.60;4.28;;;23.40;96.40;;;;;;4934503;29;20050;-96
2021/01/08 15:53:32;;;;;;;5.78;3.75;;;23.50;96.60;;;;;;4915501;29;20055;-93
2021/01/08 15:55:59;;;;;;;6.28;5.20;;;23.50;96.80;;;;;;4918419;29;20036;-92
2021/01/08 15:58:29;;;;;;;7.65;5.43;;;23.50;96.90;;;;;;4933292;29;20040;-91
2021/01/08 16:00:59;;;;;;;8.15;5.50;;;23.50;97.00;;;;;;4929509;29;20071;-91
2021/01/08 16:03:26;;;;;;;5.43;4.78;;;23.50;97.00;;;;;;4913106;29;20032;-91
2021/01/08 16:05:56;;;;;;;6.20;5.15;;;23.50;96.90;;;;;;4913074;29;20035;-92
2021/01/08 16:08:25;;;;;;;;;;;23.50;96.80;;;;;;4914351;29;20080;-90
2021/01/08 16:10:54;;;;;;;5.88;4.40;;;23.50;97.20;;;;;;4929859;29;19914;-90
2021/01/08 16:13:21;;;;;;;4.57;3.65;;;23.50;97.10;;;;;;4914848;29;20107;-93
2021/01/08 16:15:50;;;;;;;4.32;2.50;;;23.50;97.10;;;;;;4916367;29;20032;-91
2021/01/08 16:18:19;;;;;;;2.33;2.13;;;23.50;97.10;;;;;;4940657;29;20042;-93
2021/01/08 16:24:19;;;;;;;2.30;1.90;;;23.30;97.30;;;;;;4861557;29;20032;-93
2021/01/08 16:26:45;;;;;;;2.00;1.80;;;23.30;97.40;;;;;;4855015;29;20064;-91
2021/01/08 16:29:15;;;;;;;2.47;1.90;;;23.40;97.40;;;;;;4936824;29;20237;-91
2021/01/08 16:32:03;;;;;;;2.35;2.05;;;23.40;97.20;;;;;;4931742;29;20050;-90
2021/01/08 16:34:34;;;;;;;5.35;2.30;;;23.40;97.00;;;;;;4932523;29;20036;-92
2021/01/08 16:37:01;;;;;;;2.20;2.00;;;23.50;96.90;;;;;;4932506;29;20070;-95
2021/01/08 16:39:29;;;;;;;3.55;1.92;;;23.50;96.70;;;;;;4918246;29;20087;-94
2021/01/08 16:41:56;;;;;;;3.40;1.65;;;23.50;96.70;;;;;;4934687;29;20215;-93
2021/01/08 16:44:23;;;;;;;2.08;1.60;;;23.50;96.30;;;;;;4950531;29;20135;-93
2021/01/08 16:46:50;;;;;;;1.45;1.23;;;23.50;96.70;;;;;;4931174;29;20031;-92